Time;durP1;ratioP1;P1;durP2;ratioP2;P2;SDS_P1;SDS_P2;PMS_P1;PMS_P2;Temp;Humidity;BMP_temperature;BMP_pressure;BME280_temperature;BME280_humidity;BME280_pressure;Samples;Min_cycle;Max_cycle;Signal;HPM_P1;HPM_P2
2023/03/31 04:30:38;;;;;;;20.55;3.20;;;12.80;79.70;;;;;;5885112;23;20198;-72
2023/03/31 04:33:05;;;;;;;15.15;3.00;;;12.70;80.20;;;;;;4972213;28;20076;-73
2023/03/31 04:35:51;;;;;;;22.33;4.22;;;12.60;80.90;;;;;;4970353;28;20102;-73
2023/03/31 04:38:23;;;;;;;21.50;3.33;;;12.60;80.60;;;;;;4979012;28;20473;-73
2023/03/31 04:40:50;;;;;;;18.08;3.72;;;12.70;80.70;;;;;;4969518;28;20026;-73
2023/03/31 04:43:18;;;;;;;9.40;2.10;;;12.80;80.60;;;;;;4978925;28;20033;-73
2023/03/31 04:45:44;;;;;;;16.60;3.10;;;12.60;80.70;;;;;;4977438;28;20110;-73
2023/03/31 04:48:11;;;;;;;21.40;2.92;;;12.50;80.80;;;;;;4979166;28;20031;-73
2023/03/31 04:50:36;;;;;;;15.63;2.75;;;12.50;84.70;;;;;;4979091;28;20030;-73
2023/03/31 04:53:03;;;;;;;8.43;2.28;;;12.30;85.50;;;;;;4968512;28;20083;-71
2023/03/31 04:55:29;;;;;;;11.18;2.10;;;12.30;81.90;;;;;;4959397;29;20510;-71
2023/03/31 04:57:55;;;;;;;17.67;2.83;;;12.20;82.00;;;;;;4959467;29;20071;-71
2023/03/31 05:00:21;;;;;;;17.63;3.60;;;12.20;81.60;;;;;;4950563;28;20035;-76
2023/03/31 05:02:47;;;;;;;22.08;4.45;;;12.20;81.90;;;;;;4957222;28;20030;-76
2023/03/31 05:05:12;;;;;;;18.92;3.55;;;12.20;81.50;;;;;;4978388;28;20031;-76
2023/03/31 05:07:38;;;;;;;23.42;5.72;;;12.30;81.10;;;;;;4969655;28;20030;-73
2023/03/31 05:10:05;;;;;;;29.58;3.88;;;12.30;81.20;;;;;;4942163;29;20433;-76
2023/03/31 05:12:35;;;;;;;18.63;3.33;;;12.30;80.70;;;;;;4970045;28;20019;-75
2023/03/31 05:15:02;;;;;;;19.25;3.03;;;12.50;80.80;;;;;;4953256;28;20039;-75
2023/03/31 05:17:31;;;;;;;14.85;2.85;;;12.50;80.50;;;;;;4968686;28;20020;-76
2023/03/31 05:19:57;;;;;;;11.60;3.10;;;12.60;80.00;;;;;;4961188;28;20469;-74
2023/03/31 05:22:22;;;;;;;19.27;3.78;;;12.60;79.00;;;;;;4953665;28;20134;-76
2023/03/31 05:24:48;;;;;;;18.20;3.22;;;12.50;78.00;;;;;;4976683;28;20030;-75
2023/03/31 05:27:15;;;;;;;19.48;3.58;;;12.50;78.70;;;;;;4978402;28;20058;-74
2023/03/31 05:29:41;;;;;;;18.00;2.67;;;12.60;78.70;;;;;;4959216;28;20084;-73
2023/03/31 05:32:06;;;;;;;11.38;2.28;;;12.60;78.10;;;;;;4959868;28;20133;-78
2023/03/31 05:34:32;;;;;;;6.57;2.40;;;12.50;78.20;;;;;;4976196;28;20117;-78
2023/03/31 05:36:57;;;;;;;12.35;2.30;;;12.50;78.70;;;;;;4967430;28;20034;-77
2023/03/31 05:39:23;;;;;;;10.98;2.30;;;12.50;78.60;;;;;;4957515;28;20027;-75
2023/03/31 05:41:49;;;;;;;12.18;2.17;;;12.60;78.70;;;;;;4976859;28;20441;-74
2023/03/31 05:44:15;;;;;;;14.60;3.10;;;12.50;78.90;;;;;;4958262;29;20129;-75
2023/03/31 05:46:41;;;;;;;14.02;2.60;;;12.50;79.00;;;;;;4958646;28;20550;-75
2023/03/31 05:49:07;;;;;;;22.08;4.25;;;12.50;79.20;;;;;;4941333;29;20027;-75
2023/03/31 05:51:33;;;;;;;15.75;3.38;;;12.50;79.30;;;;;;4958187;28;20024;-74
2023/03/31 05:53:59;;;;;;;22.73;4.38;;;12.40;79.00;;;;;;4958420;29;20554;-75
2023/03/31 05:56:26;;;;;;;10.35;1.77;;;12.30;79.10;;;;;;4941196;29;20036;-74
2023/03/31 05:58:52;;;;;;;10.57;3.15;;;12.40;79.00;;;;;;4958413;29;20028;-75
2023/03/31 06:01:22;;;;;;;12.18;2.35;;;12.40;78.90;;;;;;4945172;29;20027;-74
2023/03/31 06:03:49;;;;;;;11.93;2.65;;;12.40;78.60;;;;;;4957793;29;20035;-75
2023/03/31 06:06:15;;;;;;;21.42;3.63;;;12.40;78.40;;;;;;4976234;28;20113;-74
2023/03/31 06:08:45;;;;;;;13.38;2.80;;;12.40;78.40;;;;;;4956694;28;20054;-73
2023/03/31 06:11:12;;;;;;;;;;;12.40;78.30;;;;;;4960395;28;20034;-73
2023/03/31 06:13:38;;;;;;;16.50;2.95;;;12.30;78.00;;;;;;4960318;28;19910;-74
2023/03/31 06:16:05;;;;;;;9.23;3.05;;;12.40;78.00;;;;;;4946832;28;20161;-73
2023/03/31 06:18:33;;;;;;;17.58;3.10;;;12.40;77.80;;;;;;4938138;28;20026;-74
2023/03/31 06:20:59;;;;;;;12.95;2.80;;;12.40;77.90;;;;;;4959416;28;20042;-74
2023/03/31 06:23:26;;;;;;;13.10;2.53;;;12.40;77.30;;;;;;4970371;28;20141;-74
2023/03/31 06:25:52;;;;;;;14.40;2.38;;;12.40;77.20;;;;;;4975085;28;20038;-74
2023/03/31 06:28:19;;;;;;;16.73;3.13;;;12.50;77.50;;;;;;4958887;28;20034;-74
2023/03/31 06:30:45;;;;;;;15.68;2.53;;;12.50;77.40;;;;;;4973531;28;20138;-74
2023/03/31 06:33:12;;;;;;;9.57;2.30;;;12.50;77.00;;;;;;4974919;28;20061;-74
2023/03/31 06:35:39;;;;;;;15.15;3.13;;;12.60;76.90;;;;;;4976566;28;20089;-74
2023/03/31 06:38:05;;;;;;;8.63;1.52;;;12.60;76.30;;;;;;4970919;28;20057;-73
2023/03/31 06:40:31;;;;;;;6.68;2.15;;;12.60;76.50;;;;;;4976489;28;20023;-73
2023/03/31 06:42:56;;;;;;;10.35;2.55;;;12.50;76.30;;;;;;4963916;28;20042;-73
2023/03/31 06:45:22;;;;;;;9.52;2.38;;;12.60;76.40;;;;;;4975379;28;20033;-74
2023/03/31 06:47:47;;;;;;;10.13;2.03;;;12.60;76.00;;;;;;4968223;28;20473;-74
2023/03/31 06:50:13;;;;;;;9.10;1.88;;;12.60;76.20;;;;;;4973720;28;20027;-74
2023/03/31 06:52:42;;;;;;;11.20;2.97;;;12.60;76.40;;;;;;4976149;28;20078;-74
2023/03/31 06:55:08;;;;;;;14.55;2.75;;;12.70;76.20;;;;;;4972557;28;20041;-74
2023/03/31 06:57:35;;;;;;;16.60;2.90;;;12.80;75.70;;;;;;4971734;28;20107;-74
2023/03/31 07:00:01;;;;;;;12.85;1.75;;;12.80;75.10;;;;;;4959233;28;20026;-75
2023/03/31 07:02:26;;;;;;;5.68;2.75;;;12.80;75.60;;;;;;4963900;28;20083;-74
2023/03/31 07:04:52;;;;;;;10.90;2.25;;;12.80;75.20;;;;;;4976145;28;20027;-74
2023/03/31 07:07:18;;;;;;;9.18;2.10;;;12.80;75.00;;;;;;4959549;28;20038;-74
2023/03/31 07:09:43;;;;;;;12.02;2.30;;;12.80;75.80;;;;;;4974807;28;20438;-75
2023/03/31 07:12:09;;;;;;;10.15;2.47;;;12.80;75.90;;;;;;4973921;28;20049;-75
2023/03/31 07:14:35;;;;;;;10.57;2.20;;;12.80;75.90;;;;;;4976156;28;20618;-74
2023/03/31 07:17:02;;;;;;;17.75;3.17;;;12.80;75.90;;;;;;4975877;28;20054;-74
2023/03/31 07:19:28;;;;;;;11.82;2.03;;;12.80;76.30;;;;;;4969573;28;20410;-74
2023/03/31 07:21:55;;;;;;;12.70;2.85;;;12.80;76.10;;;;;;4975182;28;20035;-74
2023/03/31 07:24:21;;;;;;;13.55;2.55;;;12.90;76.80;;;;;;4976175;28;20026;-75
2023/03/31 07:26:47;;;;;;;17.25;3.90;;;13.00;76.70;;;;;;4972535;28;20028;-74
2023/03/31 07:29:13;;;;;;;11.32;3.72;;;13.10;76.60;;;;;;4976458;28;20109;-74
2023/03/31 07:31:38;;;;;;;12.50;2.63;;;13.10;75.60;;;;;;4959137;28;20428;-75
2023/03/31 07:34:04;;;;;;;14.50;2.55;;;13.30;75.60;;;;;;4972993;28;20026;-75
2023/03/31 07:36:30;;;;;;;16.92;2.70;;;13.40;75.60;;;;;;4968851;28;20019;-75
2023/03/31 07:38:56;;;;;;;14.70;2.67;;;13.30;75.20;;;;;;4977255;28;20034;-75
2023/03/31 07:41:22;;;;;;;15.73;2.75;;;13.30;75.00;;;;;;4978932;28;20027;-75
2023/03/31 07:43:48;;;;;;;16.13;3.22;;;13.30;73.70;;;;;;4974525;28;20436;-75
2023/03/31 07:46:17;;;;;;;8.85;2.35;;;13.30;74.00;;;;;;4978495;28;20141;-75
2023/03/31 07:48:45;;;;;;;16.02;2.50;;;13.30;74.30;;;;;;4978361;28;20037;-75
2023/03/31 07:51:11;;;;;;;13.50;2.30;;;13.40;74.30;;;;;;4972012;28;20038;-75
2023/03/31 07:53:37;;;;;;;9.40;2.28;;;13.40;73.60;;;;;;4977285;28;20370;-74
2023/03/31 07:56:02;;;;;;;20.45;3.03;;;13.50;74.00;;;;;;4979346;28;20150;-74
2023/03/31 07:58:28;;;;;;;15.85;3.13;;;13.50;73.90;;;;;;4976707;28;20480;-75
2023/03/31 08:00:54;;;;;;;7.15;2.25;;;13.60;73.80;;;;;;4961751;28;20022;-75
2023/03/31 08:03:20;;;;;;;15.88;2.50;;;13.60;72.80;;;;;;4973608;28;20019;-75
2023/03/31 08:05:45;;;;;;;12.52;2.63;;;13.60;73.40;;;;;;4979553;28;20043;-74
2023/03/31 08:08:11;;;;;;;10.05;2.92;;;13.50;73.80;;;;;;4962186;28;20069;-74
2023/03/31 08:10:37;;;;;;;15.93;3.08;;;13.40;74.90;;;;;;4968105;28;20063;-75
2023/03/31 08:13:02;;;;;;;11.13;2.53;;;13.40;74.60;;;;;;4985371;28;20627;-75
2023/03/31 08:15:28;;;;;;;5.85;1.92;;;13.50;74.20;;;;;;4974882;28;20138;-75
2023/03/31 08:17:54;;;;;;;10.32;2.60;;;13.40;74.40;;;;;;4943199;29;20031;-74
2023/03/31 08:20:19;;;;;;;19.40;3.35;;;13.40;74.70;;;;;;4959909;29;20102;-74
2023/03/31 08:22:45;;;;;;;17.45;2.28;;;13.40;74.50;;;;;;4958430;28;20035;-75
2023/03/31 08:25:11;;;;;;;19.23;2.45;;;13.30;74.40;;;;;;4976128;28;20031;-74
2023/03/31 08:27:38;;;;;;;14.35;1.80;;;13.40;74.20;;;;;;4979120;28;20034;-75
2023/03/31 08:30:06;;;;;;;21.52;2.45;;;13.40;74.00;;;;;;4957348;28;20027;-75
2023/03/31 08:32:32;;;;;;;15.13;2.55;;;13.40;73.90;;;;;;4976121;28;20125;-75
2023/03/31 08:34:58;;;;;;;13.55;2.33;;;13.50;73.20;;;;;;4973119;28;20031;-75
2023/03/31 08:37:24;;;;;;;15.52;2.63;;;13.40;73.00;;;;;;4966356;28;20090;-75
2023/03/31 08:39:51;;;;;;;10.45;3.42;;;13.50;72.90;;;;;;4978046;28;20981;-74
2023/03/31 08:42:24;;;;;;;12.55;2.83;;;13.50;72.00;;;;;;4981321;28;20784;-75
2023/03/31 08:45:21;;;;;;;16.38;3.17;;;13.50;72.50;;;;;;4975883;28;20489;-75
2023/03/31 08:47:52;;;;;;;8.90;2.28;;;13.60;72.70;;;;;;4937072;28;20102;-75
2023/03/31 08:50:26;;;;;;;12.55;2.30;;;13.60;72.50;;;;;;4969465;28;20035;-75
2023/03/31 08:53:10;;;;;;;9.00;2.05;;;13.70;72.10;;;;;;4968121;28;20177;-75
2023/03/31 08:55:50;;;;;;;11.65;2.17;;;13.80;72.00;;;;;;4967440;28;20034;-75
2023/03/31 08:58:35;;;;;;;;;;;14.00;71.40;;;;;;4959640;28;20022;-75
2023/03/31 09:01:38;;;;;;;8.27;2.05;;;14.20;70.60;;;;;;4976887;28;19977;-75
2023/03/31 09:04:32;;;;;;;8.25;2.45;;;14.80;69.20;;;;;;4960567;28;20110;-75
2023/03/31 09:07:14;;;;;;;8.73;2.00;;;15.20;67.10;;;;;;4958967;28;20034;-75
2023/03/31 09:09:59;;;;;;;15.20;2.63;;;15.80;66.50;;;;;;4966704;28;20085;-75
2023/03/31 09:12:50;;;;;;;14.10;2.20;;;15.80;65.70;;;;;;4968893;28;20055;-75
2023/03/31 09:15:42;;;;;;;8.68;1.83;;;15.80;64.90;;;;;;4933097;28;20050;-75
2023/03/31 09:18:30;;;;;;;9.75;2.30;;;15.80;64.40;;;;;;4966514;28;20042;-75
2023/03/31 09:21:20;;;;;;;6.45;1.88;;;15.70;65.30;;;;;;4978200;28;20035;-75
2023/03/31 09:23:51;;;;;;;8.95;1.92;;;15.90;64.60;;;;;;4978169;28;20031;-75
2023/03/31 09:26:29;;;;;;;11.98;2.22;;;16.30;63.90;;;;;;4958891;28;20035;-75
2023/03/31 09:28:58;;;;;;;11.60;2.38;;;16.20;64.20;;;;;;4941737;29;20446;-75
2023/03/31 09:31:25;;;;;;;16.85;3.20;;;16.50;63.00;;;;;;4966081;28;20137;-75
2023/03/31 09:33:58;;;;;;;13.55;3.47;;;16.60;63.30;;;;;;4970120;28;20114;-75
2023/03/31 09:36:24;;;;;;;8.90;2.33;;;16.80;62.50;;;;;;4963801;28;20077;-75
2023/03/31 09:38:50;;;;;;;10.05;2.00;;;16.80;62.60;;;;;;4958693;28;20494;-75
2023/03/31 09:41:17;;;;;;;9.02;2.95;;;16.70;62.20;;;;;;4961114;28;20110;-75
2023/03/31 09:43:45;;;;;;;17.35;2.33;;;16.70;61.90;;;;;;4959763;28;20503;-75
2023/03/31 09:46:23;;;;;;;8.43;2.40;;;16.80;62.00;;;;;;4977834;28;20684;-75
2023/03/31 09:49:05;;;;;;;8.88;2.25;;;16.80;61.80;;;;;;4967405;28;20034;-75
2023/03/31 09:51:36;;;;;;;9.57;1.65;;;16.80;62.00;;;;;;4973335;28;20041;-75
2023/03/31 09:54:18;;;;;;;6.28;1.83;;;16.60;63.00;;;;;;4960196;28;20114;-75
2023/03/31 09:56:47;;;;;;;13.18;1.60;;;16.60;62.90;;;;;;4958401;29;20058;-75
2023/03/31 09:59:16;;;;;;;18.48;2.35;;;16.80;63.30;;;;;;4963935;28;20026;-75
2023/03/31 10:01:44;;;;;;;9.82;2.58;;;16.80;62.50;;;;;;4983622;28;20118;-75
2023/03/31 10:04:19;;;;;;;13.63;2.70;;;16.70;61.90;;;;;;4972017;28;20031;-75
2023/03/31 10:06:46;;;;;;;7.85;2.30;;;16.70;61.90;;;;;;4976465;28;20030;-75
2023/03/31 10:09:12;;;;;;;9.60;2.15;;;16.30;62.10;;;;;;4976289;28;20105;-75
2023/03/31 10:11:39;;;;;;;13.98;2.28;;;16.30;62.10;;;;;;4973860;28;20142;-75
2023/03/31 10:14:13;;;;;;;13.63;2.05;;;16.30;62.40;;;;;;4974386;28;20027;-75
2023/03/31 10:16:55;;;;;;;5.68;1.55;;;16.20;62.50;;;;;;4973320;28;20026;-75
2023/03/31 10:19:23;;;;;;;12.65;2.42;;;16.20;61.70;;;;;;4953575;29;20446;-75
2023/03/31 10:21:57;;;;;;;10.20;1.65;;;16.10;62.20;;;;;;4943259;28;20027;-74
2023/03/31 10:24:23;;;;;;;10.32;2.33;;;16.30;61.80;;;;;;4966751;28;20027;-74
2023/03/31 10:26:52;;;;;;;11.43;2.15;;;16.30;61.50;;;;;;4962885;28;20029;-74
2023/03/31 10:29:24;;;;;;;7.50;1.75;;;16.20;60.80;;;;;;4960860;28;20121;-73
2023/03/31 10:31:53;;;;;;;7.78;2.10;;;16.30;61.70;;;;;;4972493;28;20095;-75
2023/03/31 10:34:20;;;;;;;8.30;1.50;;;16.20;61.40;;;;;;4943419;28;20034;-73
2023/03/31 10:36:48;;;;;;;10.48;1.88;;;16.40;60.20;;;;;;4976439;28;20409;-74
2023/03/31 10:39:16;;;;;;;8.93;2.05;;;16.50;60.30;;;;;;4955433;29;20066;-75
2023/03/31 10:41:42;;;;;;;8.70;1.58;;;16.60;60.00;;;;;;4971179;28;20035;-75
2023/03/31 10:44:36;;;;;;;10.25;2.08;;;16.80;59.80;;;;;;4991984;28;20031;-75
2023/03/31 10:47:19;;;;;;;12.02;2.15;;;17.20;60.20;;;;;;4967078;28;20055;-75
2023/03/31 10:49:49;;;;;;;16.08;2.25;;;17.10;58.70;;;;;;4957564;29;20023;-76
2023/03/31 10:52:21;;;;;;;14.07;2.65;;;17.20;58.50;;;;;;4966338;28;20110;-77
2023/03/31 10:54:48;;;;;;;5.90;1.30;;;17.40;58.90;;;;;;4974674;28;20041;-76
2023/03/31 10:57:16;;;;;;;9.57;2.20;;;17.50;59.00;;;;;;4973239;28;20043;-76
2023/03/31 11:00:04;;;;;;;11.52;1.65;;;17.70;58.20;;;;;;4956535;28;20034;-76
2023/03/31 11:02:49;;;;;;;11.32;2.63;;;17.30;57.10;;;;;;4968925;28;20054;-76
2023/03/31 11:05:26;;;;;;;12.40;2.00;;;17.20;59.00;;;;;;4954777;28;20520;-76
2023/03/31 11:08:36;;;;;;;13.77;2.28;;;17.60;60.80;;;;;;4975670;28;20035;-76
2023/03/31 11:11:16;;;;;;;4.57;2.22;;;17.80;60.50;;;;;;4973757;28;20497;-76
2023/03/31 11:13:57;;;;;;;10.98;1.52;;;18.00;58.60;;;;;;4962171;28;20034;-76
2023/03/31 11:16:28;;;;;;;7.55;1.70;;;18.10;57.80;;;;;;4961777;28;20031;-76
2023/03/31 11:19:05;;;;;;;15.32;2.50;;;18.00;58.10;;;;;;4988835;28;20058;-76
2023/03/31 11:21:55;;;;;;;6.32;2.38;;;18.20;57.00;;;;;;4980628;28;20605;-76
2023/03/31 11:24:21;;;;;;;12.43;2.30;;;18.20;56.50;;;;;;4977745;28;20018;-76
2023/03/31 11:26:56;;;;;;;12.95;2.33;;;18.30;57.50;;;;;;4981627;28;20117;-76
2023/03/31 11:29:59;;;;;;;7.18;1.85;;;18.30;57.70;;;;;;4979957;28;20031;-76
2023/03/31 11:32:37;;;;;;;7.70;1.42;;;18.00;56.90;;;;;;4967780;28;20081;-76
2023/03/31 11:35:27;;;;;;;11.13;2.15;;;17.50;57.30;;;;;;4979930;28;20042;-76
2023/03/31 11:37:55;;;;;;;8.45;1.30;;;17.20;58.20;;;;;;4976735;28;20791;-76
2023/03/31 11:40:46;;;;;;;6.05;1.65;;;17.00;61.90;;;;;;4959413;28;20050;-76
2023/03/31 11:43:25;;;;;;;7.75;1.73;;;16.80;62.40;;;;;;4982662;28;20031;-76
2023/03/31 11:46:14;;;;;;;8.77;1.27;;;16.80;63.50;;;;;;4982721;28;20473;-76
2023/03/31 11:49:00;;;;;;;10.32;2.00;;;16.80;62.00;;;;;;4973291;28;20296;-78
2023/03/31 11:51:42;;;;;;;6.50;1.48;;;16.70;61.20;;;;;;4981941;28;20031;-76
2023/03/31 11:54:15;;;;;;;4.70;1.27;;;16.80;61.20;;;;;;4961205;28;20035;-76
2023/03/31 11:56:41;;;;;;;7.90;1.63;;;16.90;61.10;;;;;;4976529;28;20114;-76
2023/03/31 11:59:11;;;;;;;6.10;1.42;;;17.10;61.50;;;;;;4964627;28;20058;-76
2023/03/31 12:01:42;;;;;;;;;;;17.00;59.70;;;;;;4982174;28;20018;-77
2023/03/31 12:04:11;;;;;;;3.35;1.13;;;17.30;60.40;;;;;;4962872;28;19914;-76
2023/03/31 12:06:41;;;;;;;11.43;1.60;;;17.50;58.90;;;;;;4981819;28;20035;-76
2023/03/31 12:09:33;;;;;;;8.75;1.55;;;17.50;58.20;;;;;;4979094;28;20035;-76
2023/03/31 12:12:11;;;;;;;5.05;1.98;;;17.70;59.60;;;;;;4955199;28;20110;-76
2023/03/31 12:14:44;;;;;;;6.97;1.83;;;17.80;58.60;;;;;;4982224;28;20034;-76
2023/03/31 12:17:13;;;;;;;7.05;1.95;;;18.00;59.20;;;;;;4972918;28;20051;-76
2023/03/31 12:20:04;;;;;;;6.35;2.05;;;18.10;58.80;;;;;;4945880;29;20027;-76
2023/03/31 12:22:38;;;;;;;6.28;1.10;;;17.90;58.00;;;;;;4971967;28;20035;-77
2023/03/31 12:25:05;;;;;;;7.95;1.92;;;18.00;57.60;;;;;;4963290;28;20078;-77
2023/03/31 12:27:42;;;;;;;9.35;1.50;;;18.10;57.10;;;;;;4961585;28;20027;-76
2023/03/31 12:30:17;;;;;;;8.90;1.67;;;18.10;58.30;;;;;;4959088;28;20030;-76
2023/03/31 12:32:52;;;;;;;7.65;1.88;;;18.00;57.50;;;;;;4947912;28;20034;-76
2023/03/31 12:35:30;;;;;;;3.80;1.15;;;17.90;57.70;;;;;;4978738;28;20038;-76
2023/03/31 12:38:11;;;;;;;9.90;1.55;;;17.50;58.30;;;;;;4959703;28;20035;-76
2023/03/31 12:40:51;;;;;;;8.80;1.67;;;17.20;59.30;;;;;;4960927;28;20031;-76
2023/03/31 12:43:27;;;;;;;9.45;1.52;;;16.90;60.50;;;;;;4976736;28;20054;-76
2023/03/31 12:46:03;;;;;;;5.20;1.42;;;17.00;61.20;;;;;;4972815;28;20035;-76
2023/03/31 12:48:58;;;;;;;6.68;1.60;;;17.00;61.60;;;;;;4956540;28;20036;-76
2023/03/31 12:51:45;;;;;;;10.18;1.73;;;17.20;62.50;;;;;;4969792;28;20046;-76
2023/03/31 12:54:36;;;;;;;8.60;1.65;;;17.30;62.80;;;;;;4983533;28;20466;-76
2023/03/31 12:57:04;;;;;;;9.30;3.05;;;17.50;61.80;;;;;;4974462;28;20121;-77
2023/03/31 12:59:36;;;;;;;9.82;1.90;;;17.50;60.80;;;;;;4959870;28;20031;-76
2023/03/31 13:02:14;;;;;;;6.63;1.92;;;17.30;60.70;;;;;;4967024;28;20043;-76
2023/03/31 13:04:40;;;;;;;7.32;1.73;;;17.30;60.30;;;;;;4964290;28;20023;-76
2023/03/31 13:07:28;;;;;;;4.90;1.42;;;17.30;61.40;;;;;;4978676;28;20034;-76
2023/03/31 13:10:20;;;;;;;11.32;1.40;;;17.40;60.00;;;;;;4957834;28;20081;-76
2023/03/31 13:13:04;;;;;;;8.65;1.90;;;17.40;59.60;;;;;;4960056;28;20035;-76
2023/03/31 13:15:31;;;;;;;6.60;1.63;;;17.60;60.00;;;;;;4959265;28;20031;-76
2023/03/31 13:17:59;;;;;;;3.53;1.27;;;17.80;58.50;;;;;;4977627;28;20039;-76
2023/03/31 13:20:36;;;;;;;9.38;1.85;;;17.90;57.40;;;;;;4977260;28;20042;-76
2023/03/31 13:23:21;;;;;;;9.80;1.60;;;18.00;56.70;;;;;;4962778;28;20031;-76
2023/03/31 13:25:50;;;;;;;7.55;1.10;;;18.20;56.90;;;;;;4941775;28;20031;-76
2023/03/31 13:28:22;;;;;;;9.40;1.67;;;18.20;56.30;;;;;;4976916;28;20049;-76
2023/03/31 13:30:52;;;;;;;13.10;1.85;;;18.30;55.90;;;;;;4976709;28;20297;-76
2023/03/31 13:33:40;;;;;;;;;;;18.40;55.70;;;;;;4971014;28;20031;-75
2023/03/31 13:36:08;;;;;;;8.43;1.50;;;18.30;54.50;;;;;;4974811;28;19918;-75
2023/03/31 13:38:49;;;;;;;5.00;1.30;;;18.40;52.90;;;;;;4968022;28;20031;-76
2023/03/31 13:41:36;;;;;;;4.78;1.05;;;18.30;53.40;;;;;;4974821;28;20049;-75
2023/03/31 13:44:15;;;;;;;9.15;1.38;;;17.90;54.80;;;;;;4959278;28;20046;-75
2023/03/31 13:46:44;;;;;;;5.13;1.00;;;17.80;57.00;;;;;;4966705;28;20039;-76
2023/03/31 13:49:31;;;;;;;12.02;1.63;;;17.60;58.50;;;;;;4941361;28;20059;-76
2023/03/31 13:52:02;;;;;;;3.97;0.90;;;17.50;58.00;;;;;;4958503;29;20039;-75
2023/03/31 13:54:53;;;;;;;5.43;1.10;;;17.40;58.30;;;;;;4966461;28;20023;-76
2023/03/31 13:57:45;;;;;;;6.95;1.10;;;17.30;57.70;;;;;;4976833;28;20050;-76
2023/03/31 14:00:42;;;;;;;3.78;0.88;;;17.50;57.20;;;;;;4977661;28;20034;-76
2023/03/31 14:03:28;;;;;;;9.20;1.40;;;17.60;57.10;;;;;;4966207;28;20589;-76
2023/03/31 14:06:18;;;;;;;4.63;1.00;;;17.60;57.30;;;;;;4979711;28;20027;-76
2023/03/31 14:08:51;;;;;;;6.75;1.45;;;17.60;57.10;;;;;;4972216;28;20576;-75
2023/03/31 14:11:24;;;;;;;8.75;1.60;;;17.70;57.10;;;;;;4977150;28;20043;-76
2023/03/31 14:14:04;;;;;;;10.73;1.50;;;17.80;57.10;;;;;;4976752;28;20050;-76
2023/03/31 14:16:35;;;;;;;;;;;17.80;58.30;;;;;;4955795;28;20066;-75
2023/03/31 14:19:34;;;;;;;5.28;1.33;;;17.60;57.10;;;;;;4974822;28;19909;-76
2023/03/31 14:22:38;;;;;;;7.38;1.63;;;17.60;57.20;;;;;;4926119;28;20038;-76
2023/03/31 14:25:25;;;;;;;6.53;1.40;;;17.30;57.50;;;;;;4942083;29;20047;-75
2023/03/31 14:28:41;;;;;;;9.07;1.63;;;17.10;58.30;;;;;;4957694;29;20109;-76
2023/03/31 14:31:25;;;;;;;5.00;0.90;;;17.00;59.80;;;;;;4924833;29;20498;-76
2023/03/31 14:34:07;;;;;;;7.53;1.33;;;16.90;59.70;;;;;;4965779;28;20038;-75
2023/03/31 14:36:59;;;;;;;3.15;1.08;;;16.70;60.10;;;;;;4956960;28;20089;-76
2023/03/31 14:39:32;;;;;;;5.47;1.15;;;16.60;61.80;;;;;;4965538;28;20510;-76
2023/03/31 14:42:04;;;;;;;6.18;1.10;;;16.80;61.30;;;;;;4970851;28;20051;-76
2023/03/31 14:44:32;;;;;;;4.00;1.10;;;16.80;60.40;;;;;;4975867;28;20019;-76
2023/03/31 14:46:57;;;;;;;6.03;1.70;;;16.80;59.80;;;;;;4975226;28;20096;-76
2023/03/31 14:49:28;;;;;;;8.30;1.92;;;17.00;59.40;;;;;;4962414;28;20059;-75
2023/03/31 14:52:00;;;;;;;4.38;0.90;;;17.00;59.40;;;;;;4982608;28;20102;-76
2023/03/31 14:54:25;;;;;;;5.68;1.40;;;16.90;58.80;;;;;;4949342;28;20828;-75
2023/03/31 14:56:58;;;;;;;13.70;1.80;;;16.90;58.50;;;;;;4976723;28;20030;-75
2023/03/31 14:59:27;;;;;;;10.40;1.55;;;17.10;58.40;;;;;;4975406;28;20114;-75
2023/03/31 15:01:57;;;;;;;7.32;1.00;;;17.00;58.40;;;;;;4970331;28;20023;-75
2023/03/31 15:04:26;;;;;;;8.18;1.40;;;16.90;58.80;;;;;;4961706;28;20035;-76
2023/03/31 15:06:52;;;;;;;8.25;1.70;;;16.80;59.00;;;;;;4951789;28;20030;-76
2023/03/31 15:09:22;;;;;;;5.93;2.03;;;17.10;59.10;;;;;;4958643;28;20041;-76
2023/03/31 15:11:56;;;;;;;3.78;1.17;;;17.20;59.00;;;;;;4970753;28;20042;-76
2023/03/31 15:14:22;;;;;;;6.38;1.17;;;16.90;58.80;;;;;;4947984;28;20039;-75
2023/03/31 15:16:51;;;;;;;10.02;1.70;;;17.00;58.90;;;;;;4958832;28;20035;-75
2023/03/31 15:19:20;;;;;;;9.50;1.77;;;17.20;59.50;;;;;;4976381;28;20031;-76
2023/03/31 15:21:56;;;;;;;11.88;1.83;;;17.40;60.60;;;;;;4981897;28;20030;-76
2023/03/31 15:24:22;;;;;;;13.23;2.85;;;17.30;60.20;;;;;;4980094;28;20027;-76
2023/03/31 15:26:58;;;;;;;11.07;2.08;;;17.00;60.10;;;;;;4984610;28;20034;-76
2023/03/31 15:29:48;;;;;;;11.50;1.98;;;16.80;60.30;;;;;;4976376;28;20544;-75
2023/03/31 15:32:16;;;;;;;;;;;16.80;60.40;;;;;;4977116;28;20070;-76
2023/03/31 15:34:45;;;;;;;8.20;1.52;;;16.80;60.70;;;;;;4967339;28;20034;-75
2023/03/31 15:37:11;;;;;;;9.18;2.33;;;16.80;60.20;;;;;;4937212;28;20071;-78
2023/03/31 15:39:37;;;;;;;7.07;2.13;;;16.90;59.50;;;;;;4974138;28;20058;-76
2023/03/31 15:42:05;;;;;;;10.15;2.22;;;16.90;60.00;;;;;;4976061;28;20114;-76
2023/03/31 15:44:52;;;;;;;7.40;1.58;;;16.80;59.90;;;;;;4969340;28;20023;-75
2023/03/31 15:47:26;;;;;;;12.07;1.48;;;16.90;58.50;;;;;;4985356;28;20031;-75
2023/03/31 15:49:57;;;;;;;7.45;1.05;;;16.90;57.60;;;;;;4976621;28;20773;-75
2023/03/31 15:52:37;;;;;;;5.63;1.60;;;16.80;57.60;;;;;;4955031;28;20059;-75
2023/03/31 15:55:22;;;;;;;7.63;2.05;;;16.80;58.30;;;;;;4945546;28;20050;-75
2023/03/31 15:57:49;;;;;;;5.82;1.33;;;16.80;58.20;;;;;;4966210;28;20031;-75
2023/03/31 16:00:33;;;;;;;3.95;1.23;;;16.70;58.60;;;;;;4969735;28;20027;-75
2023/03/31 16:03:04;;;;;;;8.18;1.45;;;17.00;58.30;;;;;;4953213;28;20034;-76
2023/03/31 16:05:40;;;;;;;4.55;1.35;;;17.00;57.60;;;;;;4973763;28;20081;-73
2023/03/31 16:08:36;;;;;;;7.93;1.65;;;16.80;58.40;;;;;;4954619;28;20038;-76
2023/03/31 16:11:22;;;;;;;9.35;1.58;;;16.90;58.40;;;;;;4973539;28;20085;-76
2023/03/31 16:13:55;;;;;;;6.55;1.10;;;16.70;58.60;;;;;;4970956;28;20034;-77
2023/03/31 16:17:02;;;;;;;9.75;1.50;;;16.60;58.20;;;;;;4972804;28;20841;-76
2023/03/31 16:20:16;;;;;;;4.68;0.95;;;16.50;58.30;;;;;;4973751;28;20045;-74
2023/03/31 16:22:57;;;;;;;10.13;1.35;;;16.30;59.70;;;;;;4935276;28;20093;-74
2023/03/31 16:25:27;;;;;;;5.47;1.52;;;16.20;61.00;;;;;;4961952;28;20039;-76
2023/03/31 16:32:01;;;;;;;5.20;1.60;;;16.00;64.90;;;;;;4961674;28;20059;-75
2023/03/31 16:38:21;;;;;;;8.70;2.33;;;16.10;66.60;;;;;;4906372;29;20080;-75
2023/03/31 16:44:55;;;;;;;6.68;2.03;;;15.70;67.30;;;;;;4891043;29;20064;-75
2023/03/31 16:50:46;;;;;;;5.60;2.13;;;16.00;66.50;;;;;;4911569;28;20041;-75
2023/03/31 16:53:44;;;;;;;9.93;1.45;;;16.00;66.60;;;;;;4958516;29;20873;-75
2023/03/31 16:57:02;;;;;;;7.40;1.80;;;15.90;65.90;;;;;;4973818;28;20031;-76
2023/03/31 17:00:09;;;;;;;9.18;1.77;;;15.80;65.90;;;;;;4958840;28;20039;-76
2023/03/31 17:02:35;;;;;;;9.70;1.90;;;15.70;66.70;;;;;;4955939;28;20045;-74
2023/03/31 17:05:01;;;;;;;4.28;1.33;;;15.80;66.70;;;;;;4978140;28;20050;-75
2023/03/31 17:07:26;;;;;;;8.10;2.00;;;15.70;66.50;;;;;;4973108;28;20036;-76
2023/03/31 17:09:52;;;;;;;9.73;2.10;;;15.80;66.20;;;;;;4959067;28;20513;-77
2023/03/31 17:12:17;;;;;;;7.53;1.50;;;15.60;66.10;;;;;;4978419;28;20038;-78
2023/03/31 17:14:43;;;;;;;10.73;2.20;;;15.50;66.80;;;;;;4968121;28;20062;-79
2023/03/31 17:17:09;;;;;;;6.80;1.70;;;15.40;66.20;;;;;;4977062;28;20023;-77
2023/03/31 17:19:35;;;;;;;7.38;1.95;;;15.10;65.50;;;;;;4975434;28;20031;-85
2023/03/31 17:22:02;;;;;;;7.05;1.98;;;15.20;65.60;;;;;;4960741;28;20169;-77
2023/03/31 17:24:28;;;;;;;14.20;2.10;;;15.20;64.20;;;;;;4972944;28;20019;-80
2023/03/31 17:26:53;;;;;;;7.22;1.98;;;15.20;63.70;;;;;;4966835;28;20039;-78
2023/03/31 17:29:19;;;;;;;9.60;1.88;;;15.30;64.60;;;;;;4959243;29;20034;-78
2023/03/31 17:31:45;;;;;;;5.40;2.15;;;15.30;64.80;;;;;;4941633;29;20058;-80
2023/03/31 17:34:11;;;;;;;10.13;2.60;;;15.30;65.10;;;;;;4943666;28;20031;-75
2023/03/31 17:36:37;;;;;;;8.25;1.92;;;15.20;64.80;;;;;;4956854;29;20494;-84
2023/03/31 17:39:04;;;;;;;11.23;1.88;;;15.30;65.00;;;;;;4941782;29;20024;-76
2023/03/31 17:41:30;;;;;;;9.40;2.30;;;15.30;64.30;;;;;;4970722;28;20026;-80
2023/03/31 17:43:56;;;;;;;8.50;1.85;;;15.20;64.30;;;;;;4972561;28;20038;-80
2023/03/31 17:46:23;;;;;;;3.63;1.23;;;15.20;64.20;;;;;;4958847;29;20039;-80
2023/03/31 17:48:49;;;;;;;10.20;1.52;;;15.10;64.00;;;;;;4941534;29;20055;-83
2023/03/31 17:51:17;;;;;;;6.95;1.60;;;15.10;64.00;;;;;;4959105;28;20027;-82
2023/03/31 17:53:45;;;;;;;9.60;1.90;;;15.10;64.00;;;;;;4960209;28;20422;-81
2023/03/31 17:56:11;;;;;;;5.00;1.88;;;15.00;63.50;;;;;;4978051;28;20831;-81
2023/03/31 17:58:37;;;;;;;7.38;1.60;;;14.90;63.80;;;;;;4976235;28;20027;-79